Time;durP1;ratioP1;P1;durP2;ratioP2;P2;SDS_P1;SDS_P2;PMS_P1;PMS_P2;Temp;Humidity;BMP_temperature;BMP_pressure;BME280_temperature;BME280_humidity;BME280_pressure;Samples;Min_cycle;Max_cycle;Signal;HPM_P1;HPM_P2
2022/09/22 00:01:25;;;;;;;4.00;3.00;;;;;;;9.34;87.90;100718.59;130329;1267;108905;-73
2022/09/22 00:04:31;;;;;;;3.80;2.90;;;;;;;9.34;87.72;100715.73;130306;1267;108697;-73
2022/09/22 00:07:36;;;;;;;6.20;3.00;;;;;;;9.33;87.95;100714.05;130329;1267;108808;-74
2022/09/22 00:10:42;;;;;;;4.60;2.70;;;;;;;9.29;87.96;100716.20;130328;1267;108859;-73
2022/09/22 00:13:50;;;;;;;4.00;2.50;;;;;;;9.30;87.87;100718.36;130381;1268;108737;-74
2022/09/22 00:16:58;;;;;;;4.20;3.00;;;;;;;9.32;87.71;100714.83;130340;1267;108531;-73
2022/09/22 00:20:03;;;;;;;5.00;3.00;;;;;;;9.34;87.94;100716.27;130294;1267;109721;-74
2022/09/22 00:23:09;;;;;;;5.90;3.20;;;;;;;9.35;87.88;100716.70;130296;1268;108189;-73
2022/09/22 00:26:16;;;;;;;5.00;3.90;;;;;;;9.35;88.07;100714.73;130284;1267;108930;-73
2022/09/22 00:29:22;;;;;;;6.00;3.30;;;;;;;9.33;87.97;100716.69;130287;1267;108620;-73
2022/09/22 00:32:28;;;;;;;3.60;2.20;;;;;;;9.31;88.08;100712.10;130326;1266;108825;-73
2022/09/22 00:35:36;;;;;;;4.20;3.00;;;;;;;9.32;88.11;100709.56;130320;1267;108676;-74
2022/09/22 00:38:42;;;;;;;5.00;3.20;;;;;;;9.32;87.95;100710.80;130273;1267;106890;-73
2022/09/22 00:41:51;;;;;;;4.50;3.10;;;;;;;9.33;88.36;100707.86;130244;1268;108723;-73
2022/09/22 00:44:57;;;;;;;6.40;3.40;;;;;;;9.29;88.22;100709.83;130225;1267;108642;-73
2022/09/22 00:48:02;;;;;;;5.10;2.80;;;;;;;9.22;88.32;100710.75;130356;1267;108671;-73
2022/09/22 00:51:12;;;;;;;4.70;2.50;;;;;;;9.15;88.29;100710.61;130240;1267;108682;-73
2022/09/22 00:54:20;;;;;;;4.70;3.10;;;;;;;9.13;88.69;100709.16;130352;1267;109146;-72
2022/09/22 00:57:28;;;;;;;5.80;3.10;;;;;;;9.10;88.91;100709.66;130314;1267;108734;-72
2022/09/22 01:00:33;;;;;;;4.90;3.70;;;;;;;9.08;88.51;100707.91;130295;1267;108579;-74
2022/09/22 01:03:39;;;;;;;4.40;4.00;;;;;;;9.04;88.61;100705.55;130341;1267;107425;-73
2022/09/22 01:06:46;;;;;;;4.90;3.70;;;;;;;9.01;88.65;100700.62;130258;1267;108676;-74
2022/09/22 01:09:52;;;;;;;4.20;3.10;;;;;;;8.96;88.84;100695.35;130270;1267;108747;-73
2022/09/22 01:13:08;;;;;;;6.20;4.10;;;;;;;8.95;88.74;100700.08;130412;1267;108644;-73
2022/09/22 01:16:34;;;;;;;4.40;3.10;;;;;;;8.97;88.59;100696.06;130312;1267;109192;-73
2022/09/22 01:20:17;;;;;;;6.70;3.30;;;;;;;9.02;88.59;100695.38;130379;1267;108648;-74
2022/09/22 01:23:52;;;;;;;4.00;3.00;;;;;;;9.03;88.92;100697.80;130279;1267;108666;-73
2022/09/22 01:27:31;;;;;;;5.00;3.00;;;;;;;8.98;88.73;100699.71;130271;1269;109696;-75
2022/09/22 01:30:42;;;;;;;3.20;2.40;;;;;;;8.94;89.15;100699.33;130281;1267;108094;-73
2022/09/22 01:33:55;;;;;;;4.70;3.10;;;;;;;8.93;89.84;100700.05;130332;1267;107697;-74
2022/09/22 01:37:09;;;;;;;4.40;3.30;;;;;;;8.94;89.43;100698.92;130317;1267;108900;-73
2022/09/22 01:40:26;;;;;;;4.80;3.40;;;;;;;8.94;89.83;100697.19;130365;1267;107270;-73
2022/09/22 01:43:40;;;;;;;6.00;3.20;;;;;;;8.93;89.18;100702.41;130356;1268;108737;-73
2022/09/22 01:46:52;;;;;;;5.00;3.30;;;;;;;8.90;90.24;100704.93;130293;1267;108685;-73
2022/09/22 01:50:05;;;;;;;4.60;2.80;;;;;;;8.86;89.79;100702.27;130448;1267;108904;-74
2022/09/22 01:53:11;;;;;;;;;;;;;;;8.88;89.74;100701.55;130375;1267;108670;-74
2022/09/22 01:56:20;;;;;;;4.60;3.40;;;;;;;8.92;89.84;100700.73;130343;1267;108963;-73
2022/09/22 01:59:30;;;;;;;5.40;4.00;;;;;;;8.92;89.93;100703.95;130379;1267;108722;-73
2022/09/22 02:02:42;;;;;;;4.40;3.40;;;;;;;8.89;89.89;100699.89;130338;1267;109460;-74
2022/09/22 02:05:52;;;;;;;4.60;3.30;;;;;;;8.92;89.41;100701.25;130341;1268;108977;-76
2022/09/22 02:09:01;;;;;;;6.10;3.90;;;;;;;8.98;89.65;100694.83;130318;1267;108706;-75
2022/09/22 02:12:07;;;;;;;5.80;3.80;;;;;;;9.01;89.29;100693.77;130347;1267;109145;-76
2022/09/22 02:18:39;;;;;;;5.40;3.50;;;;;;;8.87;89.80;100696.31;130333;1267;108593;-75
2022/09/22 02:21:47;;;;;;;4.40;3.20;;;;;;;8.79;89.95;100700.21;130627;1267;108955;-75
2022/09/22 02:24:52;;;;;;;4.60;3.50;;;;;;;8.75;89.50;100699.52;130242;1267;108734;-75
2022/09/22 02:27:59;;;;;;;5.80;4.00;;;;;;;8.76;89.61;100699.44;130955;1267;108912;-76
2022/09/22 02:31:06;;;;;;;7.30;4.70;;;;;;;8.73;90.31;100702.91;130363;1267;107645;-77
2022/09/22 02:34:12;;;;;;;6.80;4.50;;;;;;;8.74;89.77;100700.82;130289;1267;107711;-76
2022/09/22 02:37:26;;;;;;;5.90;4.00;;;;;;;8.75;89.49;100705.39;130331;1267;108820;-77
2022/09/22 02:40:43;;;;;;;8.60;5.30;;;;;;;8.68;90.03;100718.37;130279;1267;108711;-76
2022/09/22 02:43:55;;;;;;;7.20;5.80;;;;;;;8.65;89.95;100717.30;130431;1267;107874;-77
2022/09/22 02:47:06;;;;;;;7.80;6.00;;;;;;;8.69;89.82;100721.17;130338;1267;108819;-76
2022/09/22 02:50:13;;;;;;;9.50;6.00;;;;;;;8.68;89.72;100718.40;130310;1267;108803;-77
2022/09/22 02:53:19;;;;;;;9.90;6.10;;;;;;;8.60;90.03;100720.80;130413;1267;107355;-77
2022/09/22 02:56:25;;;;;;;8.80;5.40;;;;;;;8.54;90.00;100720.81;130418;1267;108624;-78
2022/09/22 02:59:30;;;;;;;9.50;6.40;;;;;;;8.50;90.08;100720.26;130362;1267;108893;-76
2022/09/22 03:02:35;;;;;;;9.10;6.70;;;;;;;8.48;90.14;100719.85;130370;1267;108685;-76
2022/09/22 03:05:41;;;;;;;9.40;7.20;;;;;;;8.48;90.02;100718.28;130206;1268;109135;-77
2022/09/22 03:08:46;;;;;;;9.40;6.60;;;;;;;8.48;90.03;100718.59;130392;1267;108712;-77
2022/09/22 03:11:52;;;;;;;8.50;5.50;;;;;;;8.46;89.86;100720.17;130310;1267;108968;-77
2022/09/22 03:14:57;;;;;;;8.90;6.50;;;;;;;8.50;89.71;100718.48;130316;1267;108910;-77
2022/09/22 03:18:02;;;;;;;10.10;7.10;;;;;;;8.52;89.76;100716.48;130298;1267;108642;-77
2022/09/22 03:21:08;;;;;;;9.40;6.60;;;;;;;8.54;89.52;100714.77;130390;1267;108666;-76
2022/09/22 03:24:13;;;;;;;9.30;6.40;;;;;;;8.50;89.36;100710.98;130316;1267;108873;-77
2022/09/22 03:27:18;;;;;;;8.60;5.80;;;;;;;8.50;89.43;100707.44;130368;1267;109153;-79
2022/09/22 03:30:24;;;;;;;8.10;5.50;;;;;;;8.52;89.33;100705.71;130278;1266;108872;-77
2022/09/22 03:33:29;;;;;;;8.40;6.60;;;;;;;8.47;89.38;100707.21;130370;1267;109361;-77
2022/09/22 03:36:35;;;;;;;9.70;6.90;;;;;;;8.48;89.36;100708.51;130304;1267;108697;-77
2022/09/22 03:39:40;;;;;;;12.00;6.70;;;;;;;8.47;89.29;100709.14;130388;1267;108956;-77
2022/09/22 03:42:46;;;;;;;10.20;7.50;;;;;;;8.42;89.39;100709.55;130319;1267;108690;-77
2022/09/22 03:45:57;;;;;;;9.90;6.30;;;;;;;8.37;89.33;100705.81;130314;1267;108945;-77
2022/09/22 03:49:03;;;;;;;8.10;5.90;;;;;;;8.37;89.48;100714.36;130441;1267;108077;-77
2022/09/22 03:52:09;;;;;;;11.00;7.50;;;;;;;8.38;89.52;100717.64;130247;1269;108727;-77
2022/09/22 03:55:14;;;;;;;11.30;6.60;;;;;;;8.35;89.96;100720.56;130272;1268;108740;-76
2022/09/22 03:58:20;;;;;;;10.90;7.10;;;;;;;8.33;89.65;100715.19;130222;1269;107635;-77
2022/09/22 04:01:25;;;;;;;9.80;6.90;;;;;;;8.31;89.84;100712.73;130283;1267;108779;-77
2022/09/22 04:04:32;;;;;;;9.10;6.30;;;;;;;8.32;90.01;100713.58;130170;1267;108664;-77
2022/09/22 04:07:38;;;;;;;8.00;5.50;;;;;;;8.27;89.79;100710.24;130266;1268;109759;-77
2022/09/22 04:10:44;;;;;;;8.90;6.20;;;;;;;8.25;89.83;100710.15;130463;1267;108669;-76
2022/09/22 04:13:49;;;;;;;10.30;6.70;;;;;;;8.25;89.70;100713.89;130307;1267;108783;-77
2022/09/22 04:16:55;;;;;;;10.70;7.60;;;;;;;8.30;89.85;100715.84;130310;1267;108903;-77
2022/09/22 04:20:01;;;;;;;10.10;7.50;;;;;;;8.31;89.92;100720.20;130312;1267;108883;-77
2022/09/22 04:23:06;;;;;;;9.20;6.10;;;;;;;8.30;89.93;100716.73;130238;1267;108867;-77
2022/09/22 04:26:11;;;;;;;8.90;6.50;;;;;;;8.35;89.89;100713.66;130310;1267;108732;-77
2022/09/22 04:29:17;;;;;;;10.00;6.80;;;;;;;8.36;89.72;100712.67;130346;1267;109136;-76
2022/09/22 04:32:22;;;;;;;11.70;7.70;;;;;;;8.40;89.88;100717.85;130263;1268;109064;-76
2022/09/22 04:35:28;;;;;;;11.20;7.00;;;;;;;8.36;90.13;100716.70;130245;1267;108778;-76
2022/09/22 04:38:34;;;;;;;10.60;7.30;;;;;;;8.35;90.39;100716.52;130336;1267;108966;-75
2022/09/22 04:41:39;;;;;;;8.70;5.70;;;;;;;8.33;90.24;100719.45;130367;1267;110048;-76
2022/09/22 04:44:45;;;;;;;7.90;5.70;;;;;;;8.34;90.23;100718.33;130321;1267;107746;-76
2022/09/22 04:47:52;;;;;;;12.30;8.00;;;;;;;8.40;90.33;100718.39;130287;1267;108739;-77
2022/09/22 04:50:58;;;;;;;18.20;13.70;;;;;;;8.44;90.18;100720.50;130360;1267;108633;-75
2022/09/22 04:54:04;;;;;;;40.90;26.70;;;;;;;8.51;90.20;100719.48;130333;1267;108699;-77
2022/09/22 04:57:09;;;;;;;28.00;17.60;;;;;;;8.58;89.93;100722.36;130361;1267;108578;-77
2022/09/22 05:00:18;;;;;;;17.40;9.90;;;;;;;8.56;90.12;100723.58;130220;1268;108825;-72
2022/09/22 05:03:23;;;;;;;30.30;19.50;;;;;;;8.59;90.29;100725.48;130460;1267;107742;-74
2022/09/22 05:06:29;;;;;;;10.90;7.30;;;;;;;8.64;90.17;100720.25;130337;1267;108692;-74
2022/09/22 05:09:35;;;;;;;35.50;22.70;;;;;;;8.68;90.38;100719.44;130240;1268;108612;-73
2022/09/22 05:12:42;;;;;;;51.30;32.60;;;;;;;8.71;90.25;100717.55;130226;1268;108591;-73
2022/09/22 05:15:47;;;;;;;68.10;35.80;;;;;;;8.74;90.50;100718.05;130334;1267;108684;-76
2022/09/22 05:18:52;;;;;;;62.50;33.20;;;;;;;8.73;90.35;100723.45;130309;1267;108876;-73
2022/09/22 05:21:58;;;;;;;25.60;14.90;;;;;;;8.78;90.53;100728.33;130329;1267;108695;-74
2022/09/22 05:25:03;;;;;;;24.80;14.70;;;;;;;8.84;90.34;100724.77;130095;1269;108751;-73
2022/09/22 05:28:10;;;;;;;19.90;12.30;;;;;;;8.91;90.33;100728.16;130403;1267;108994;-72
2022/09/22 05:31:15;;;;;;;16.60;10.00;;;;;;;8.93;90.33;100734.53;130321;1267;109201;-72
2022/09/22 05:34:20;;;;;;;17.40;9.60;;;;;;;8.90;90.45;100734.73;130302;1267;109031;-74
2022/09/22 05:37:26;;;;;;;34.30;19.80;;;;;;;8.89;90.77;100733.42;130401;1267;108587;-74
2022/09/22 05:40:31;;;;;;;25.20;14.70;;;;;;;8.94;90.67;100735.85;130403;1267;108738;-76
2022/09/22 05:43:37;;;;;;;17.60;12.60;;;;;;;9.03;90.44;100737.19;130411;1267;108806;-68
2022/09/22 05:46:42;;;;;;;21.10;13.10;;;;;;;9.07;90.51;100740.80;130111;1267;109781;-68
2022/09/22 05:49:48;;;;;;;17.70;10.80;;;;;;;9.07;90.37;100739.89;130188;1267;108848;-69
2022/09/22 05:53:04;;;;;;;12.30;8.60;;;;;;;9.10;90.65;100740.87;130194;1267;107575;-68
2022/09/22 05:56:09;;;;;;;14.30;10.30;;;;;;;9.12;90.76;100741.81;130221;1267;108561;-68
2022/09/22 05:59:14;;;;;;;18.90;11.40;;;;;;;9.13;90.62;100744.38;130123;1267;108733;-68
2022/09/22 06:02:20;;;;;;;16.30;10.40;;;;;;;9.16;90.65;100744.11;130194;1267;107608;-69
2022/09/22 06:05:25;;;;;;;17.30;11.40;;;;;;;9.15;90.42;100745.58;130110;1269;108584;-69
2022/09/22 06:08:31;;;;;;;16.90;11.30;;;;;;;9.17;90.57;100745.62;130279;1267;108773;-70
2022/09/22 06:11:36;;;;;;;12.90;8.50;;;;;;;9.16;90.51;100749.03;130328;1269;107208;-69
2022/09/22 06:14:42;;;;;;;19.20;13.20;;;;;;;9.24;90.67;100746.76;130122;1267;108968;-70
2022/09/22 06:17:56;;;;;;;52.30;30.60;;;;;;;9.34;90.39;100751.05;130216;1269;108686;-70
2022/09/22 06:21:09;;;;;;;26.90;15.90;;;;;;;9.37;90.30;100748.16;130273;1267;108302;-69
2022/09/22 06:24:14;;;;;;;21.40;13.40;;;;;;;9.43;90.32;100749.56;130262;1267;108033;-68
2022/09/22 06:27:20;;;;;;;16.00;11.10;;;;;;;9.46;90.23;100748.41;130297;1267;108643;-70
2022/09/22 06:30:25;;;;;;;14.10;9.10;;;;;;;9.47;90.24;100750.50;130212;1270;108785;-70
2022/09/22 06:33:31;;;;;;;14.70;10.20;;;;;;;9.50;90.20;100750.54;130873;1267;108591;-70
2022/09/22 06:36:36;;;;;;;14.00;10.40;;;;;;;9.65;90.36;100751.34;131847;1267;109601;-68
2022/09/22 06:39:42;;;;;;;15.60;10.70;;;;;;;9.82;90.19;100752.86;130234;1269;107666;-69
2022/09/22 06:42:48;;;;;;;12.00;9.70;;;;;;;9.94;89.87;100753.14;130533;1267;108968;-66
2022/09/22 06:45:58;;;;;;;15.60;10.40;;;;;;;10.05;89.88;100754.94;130289;1270;108637;-67
2022/09/22 06:49:04;;;;;;;14.10;9.80;;;;;;;10.11;89.74;100756.92;130196;1268;109740;-66
2022/09/22 06:52:13;;;;;;;13.40;10.00;;;;;;;10.07;88.99;100760.09;130239;1267;108672;-70
2022/09/22 06:55:19;;;;;;;39.80;19.00;;;;;;;10.01;89.35;100757.48;130214;1269;108577;-69
2022/09/22 06:58:26;;;;;;;19.30;11.60;;;;;;;10.08;89.78;100755.44;130263;1269;108689;-69
2022/09/22 07:01:32;;;;;;;16.00;11.60;;;;;;;10.14;89.43;100754.52;130305;1267;108692;-68
2022/09/22 07:04:37;;;;;;;20.40;11.90;;;;;;;10.11;89.19;100756.22;130256;1268;108380;-68
2022/09/22 07:07:43;;;;;;;11.90;8.70;;;;;;;10.07;89.31;100755.13;130259;1267;108575;-68
2022/09/22 07:10:53;;;;;;;20.10;12.00;;;;;;;10.09;89.62;100754.08;130289;1267;108868;-69
2022/09/22 07:14:00;;;;;;;17.40;11.70;;;;;;;10.09;89.33;100752.83;130240;1267;109486;-68
2022/09/22 07:17:05;;;;;;;17.60;12.00;;;;;;;10.15;89.48;100751.73;130224;1268;108801;-69
2022/09/22 07:20:11;;;;;;;11.30;9.40;;;;;;;10.20;89.42;100746.69;130350;1267;108928;-69
2022/09/22 07:23:20;;;;;;;26.70;14.10;;;;;;;10.31;89.68;100746.22;130227;1269;108705;-68
2022/09/22 07:26:29;;;;;;;14.80;9.50;;;;;;;10.31;88.71;100746.61;130338;1268;109808;-67
2022/09/22 07:29:35;;;;;;;60.70;37.50;;;;;;;10.26;88.86;100757.38;130378;1268;108733;-68
2022/09/22 07:32:40;;;;;;;41.50;22.10;;;;;;;10.18;88.92;100758.96;130268;1267;108741;-68
2022/09/22 07:35:45;;;;;;;23.20;16.30;;;;;;;10.21;89.35;100762.21;130233;1270;108295;-68
2022/09/22 07:38:53;;;;;;;12.60;10.20;;;;;;;10.31;89.47;100759.21;130196;1267;108775;-69
2022/09/22 07:41:58;;;;;;;13.50;9.80;;;;;;;10.37;89.19;100762.30;130295;1268;108516;-68
2022/09/22 07:45:13;;;;;;;13.90;10.80;;;;;;;10.46;89.34;100760.95;130254;1269;107708;-68
2022/09/22 07:51:38;;;;;;;13.80;11.70;;;;;;;10.83;89.10;100756.83;130162;1267;109478;-68
2022/09/22 07:54:43;;;;;;;17.20;13.40;;;;;;;11.15;88.75;100752.98;130455;1268;108737;-69
2022/09/22 07:57:55;;;;;;;14.20;12.40;;;;;;;11.39;87.66;100752.42;130259;1269;108447;-68
2022/09/22 08:01:04;;;;;;;18.00;14.40;;;;;;;11.47;88.00;100752.56;130274;1268;108782;-69
2022/09/22 08:04:15;;;;;;;11.00;8.80;;;;;;;11.70;88.30;100752.98;130042;1269;106997;-69
2022/09/22 08:07:20;;;;;;;11.10;9.30;;;;;;;12.05;87.59;100752.73;130444;1268;108456;-69
2022/09/22 08:10:27;;;;;;;13.40;11.40;;;;;;;12.36;87.10;100754.27;130301;1268;108708;-71
2022/09/22 08:13:33;;;;;;;12.30;10.20;;;;;;;12.48;85.66;100754.67;130298;1270;109481;-69
2022/09/22 08:16:41;;;;;;;12.90;11.30;;;;;;;12.29;84.54;100754.85;130306;1268;108629;-69
2022/09/22 08:19:46;;;;;;;13.60;11.60;;;;;;;12.20;86.09;100757.84;130292;1269;109000;-68
2022/09/22 08:22:54;;;;;;;13.40;11.50;;;;;;;12.15;85.42;100759.00;130317;1268;108555;-69
2022/09/22 08:26:04;;;;;;;9.80;8.50;;;;;;;12.05;85.14;100759.31;130252;1268;108903;-70
2022/09/22 08:29:16;;;;;;;10.50;9.30;;;;;;;12.12;85.29;100761.99;130285;1268;108704;-69
2022/09/22 08:32:20;;;;;;;;;;;;;;;12.22;84.24;100763.59;130332;1268;109038;-70
2022/09/22 08:35:26;;;;;;;13.20;11.60;;;;;;;12.40;85.09;100758.14;130311;1268;108969;-69
2022/09/22 08:38:34;;;;;;;13.30;10.80;;;;;;;12.53;84.81;100764.92;130287;1268;108901;-70
2022/09/22 08:41:46;;;;;;;12.60;10.00;;;;;;;12.47;84.15;100766.92;130329;1268;108720;-70
2022/09/22 08:45:01;;;;;;;14.50;12.30;;;;;;;12.38;84.79;100769.59;130351;1268;108080;-69
2022/09/22 08:51:54;;;;;;;15.50;13.60;;;;;;;12.30;83.61;100776.08;130347;1268;108641;-69
2022/09/22 08:55:02;;;;;;;18.50;13.60;;;;;;;12.31;83.34;100779.42;130334;1271;108688;-70
2022/09/22 08:58:18;;;;;;;12.00;9.80;;;;;;;12.37;82.90;100774.20;130346;1268;108706;-71
2022/09/22 09:01:36;;;;;;;12.30;11.00;;;;;;;12.60;84.30;100768.15;130225;1268;108977;-69
2022/09/22 09:05:24;;;;;;;12.50;10.80;;;;;;;12.85;84.00;100760.43;130143;1269;107577;-69
2022/09/22 09:08:55;;;;;;;11.30;10.20;;;;;;;12.92;83.73;100758.29;130042;1268;108872;-69
2022/09/22 09:12:24;;;;;;;11.30;9.00;;;;;;;13.11;83.08;100752.31;130195;1268;108783;-70
2022/09/22 09:15:44;;;;;;;10.20;8.70;;;;;;;13.20;81.99;100748.28;130190;1268;108710;-70
2022/09/22 09:18:57;;;;;;;12.20;10.00;;;;;;;13.20;82.85;100746.14;130154;1268;108764;-69
2022/09/22 09:22:09;;;;;;;11.70;8.10;;;;;;;13.17;81.24;100745.05;130311;1268;108774;-69
2022/09/22 09:25:20;;;;;;;;;;;;;;;13.22;82.05;100744.88;130206;1268;108496;-70
2022/09/22 09:28:33;;;;;;;8.90;7.60;;;;;;;13.40;81.35;100744.57;130212;1268;107292;-70
2022/09/22 09:31:43;;;;;;;8.00;6.90;;;;;;;13.61;82.18;100742.88;130369;1267;109409;-69
2022/09/22 09:34:49;;;;;;;8.30;7.10;;;;;;;13.82;81.42;100745.70;130266;1268;109211;-70
2022/09/22 09:37:57;;;;;;;8.80;7.90;;;;;;;13.97;80.66;100741.35;130270;1268;108788;-72
2022/09/22 09:41:16;;;;;;;9.10;7.80;;;;;;;14.19;80.52;100740.98;130263;1268;108983;-68
2022/09/22 09:44:28;;;;;;;9.10;7.40;;;;;;;14.33;79.87;100740.05;130307;1268;107711;-69
2022/09/22 09:47:52;;;;;;;9.30;8.40;;;;;;;14.39;79.16;100741.18;130227;1268;107758;-69
2022/09/22 09:51:04;;;;;;;7.40;6.70;;;;;;;14.57;80.62;100729.92;130065;1268;108945;-71
2022/09/22 09:54:12;;;;;;;9.00;8.10;;;;;;;14.81;79.69;100726.95;130101;1268;108586;-69
2022/09/22 09:57:18;;;;;;;6.50;5.80;;;;;;;14.85;78.34;100727.79;130165;1267;108854;-69
2022/09/22 10:00:31;;;;;;;8.80;7.90;;;;;;;14.74;77.43;100730.77;130140;1268;107900;-69
2022/09/22 10:03:46;;;;;;;9.70;7.60;;;;;;;14.33;76.64;100735.35;130392;1268;108813;-69
2022/09/22 10:06:51;;;;;;;8.80;6.80;;;;;;;13.99;77.20;100737.11;130315;1268;108636;-69
2022/09/22 10:10:17;;;;;;;6.90;6.20;;;;;;;13.85;78.22;100737.73;130189;1268;109477;-72
2022/09/22 10:13:30;;;;;;;9.60;7.40;;;;;;;13.85;78.46;100737.47;130250;1268;108762;-69
2022/09/22 10:16:35;;;;;;;7.60;6.10;;;;;;;13.84;78.12;100737.83;130273;1267;108760;-69
2022/09/22 10:19:41;;;;;;;5.10;4.40;;;;;;;13.86;78.82;100735.77;130261;1268;108734;-69
2022/09/22 10:22:47;;;;;;;6.30;4.20;;;;;;;13.91;78.41;100729.30;130166;1268;107443;-69
2022/09/22 10:26:12;;;;;;;5.40;4.70;;;;;;;14.06;78.68;100731.35;130295;1268;106989;-69
2022/09/22 10:29:19;;;;;;;5.80;3.00;;;;;;;14.21;76.39;100730.48;130300;1267;108626;-69
2022/09/22 10:32:25;;;;;;;4.20;3.60;;;;;;;14.14;74.61;100735.05;130226;1267;109495;-70
2022/09/22 10:35:33;;;;;;;3.40;2.70;;;;;;;14.03;75.08;100731.05;130145;1268;266662;-69
2022/09/22 10:38:41;;;;;;;3.20;2.60;;;;;;;14.15;76.91;100728.21;130285;1268;108678;-70
2022/09/22 10:41:48;;;;;;;3.00;2.30;;;;;;;14.37;75.53;100729.29;130272;1267;107306;-69
2022/09/22 10:44:56;;;;;;;3.60;1.90;;;;;;;14.33;70.54;100727.67;130292;1268;106918;-70
2022/09/22 10:48:07;;;;;;;3.80;2.70;;;;;;;14.25;71.18;100721.46;130291;1268;108733;-69
2022/09/22 10:51:24;;;;;;;4.00;3.60;;;;;;;14.34;72.20;100722.77;130206;1267;108707;-69
2022/09/22 10:54:58;;;;;;;5.70;4.10;;;;;;;14.35;72.01;100720.48;130272;1268;108586;-70
2022/09/22 10:58:35;;;;;;;4.60;3.00;;;;;;;14.33;72.33;100718.27;130216;1268;108622;-69
2022/09/22 11:01:59;;;;;;;3.60;3.10;;;;;;;14.48;71.69;100715.69;130253;1268;109498;-69
2022/09/22 11:12:42;;;;;;;3.80;3.40;;;;;;;14.98;68.89;100703.05;129708;1273;109787;-69
2022/09/22 11:16:06;;;;;;;4.10;3.30;;;;;;;15.03;69.86;100707.86;130346;1267;108693;-68
2022/09/22 11:19:29;;;;;;;4.50;3.50;;;;;;;15.03;68.79;100702.67;130345;1267;108770;-68
2022/09/22 11:23:28;;;;;;;2.90;2.60;;;;;;;15.14;68.77;100702.95;130273;1269;108589;-71
2022/09/22 11:27:00;;;;;;;3.00;2.70;;;;;;;15.19;68.56;100695.50;129831;1273;108769;-69
2022/09/22 11:30:15;;;;;;;3.90;2.40;;;;;;;15.27;68.08;100698.77;129820;1273;108952;-69
2022/09/22 11:33:51;;;;;;;2.90;2.10;;;;;;;15.38;65.67;100696.19;129955;1273;108893;-69
2022/09/22 11:37:24;;;;;;;2.80;2.40;;;;;;;15.36;66.92;100695.05;129942;1273;108780;-70
2022/09/22 11:40:52;;;;;;;8.20;4.40;;;;;;;15.08;66.17;100701.04;129813;1273;108672;-70
2022/09/22 11:44:20;;;;;;;5.80;4.20;;;;;;;14.81;67.24;100703.04;129984;1268;108894;-71
2022/09/22 11:47:44;;;;;;;5.20;3.80;;;;;;;14.55;67.63;100704.58;130172;1267;109960;-69
2022/09/22 11:51:19;;;;;;;6.20;4.80;;;;;;;14.47;69.11;100707.22;130340;1267;108653;-69
2022/09/22 11:54:46;;;;;;;14.20;10.20;;;;;;;14.44;69.84;100705.20;130272;1267;108770;-69
2022/09/22 11:57:55;;;;;;;8.70;7.40;;;;;;;14.46;70.41;100706.81;130245;1267;108749;-70
2022/09/22 12:01:05;;;;;;;9.70;6.80;;;;;;;14.47;70.62;100704.66;130253;1267;108682;-70
2022/09/22 12:04:34;;;;;;;6.50;5.30;;;;;;;14.46;69.62;100707.02;130287;1267;108473;-68
2022/09/22 12:07:44;;;;;;;5.00;4.10;;;;;;;14.35;68.82;100702.05;130320;1267;108662;-70
2022/09/22 12:10:51;;;;;;;7.80;5.30;;;;;;;14.44;69.66;100694.98;130252;1267;107731;-69
2022/09/22 12:13:58;;;;;;;7.50;5.10;;;;;;;14.59;70.31;100694.81;130283;1267;108765;-69
2022/09/22 12:17:13;;;;;;;14.00;7.50;;;;;;;14.76;69.72;100686.75;130351;1267;108948;-70
2022/09/22 12:20:35;;;;;;;8.50;4.60;;;;;;;14.96;69.76;100684.45;130250;1268;108594;-70
2022/09/22 12:23:43;;;;;;;8.90;5.40;;;;;;;15.17;66.53;100679.30;130165;1268;108576;-72
2022/09/22 12:26:50;;;;;;;85.70;28.90;;;;;;;15.20;67.04;100674.39;130258;1267;108688;-70
2022/09/22 12:30:01;;;;;;;11.70;5.60;;;;;;;15.32;67.37;100677.61;130302;1267;108737;-69
2022/09/22 12:33:15;;;;;;;4.40;2.90;;;;;;;15.26;65.91;100679.12;130249;1267;108894;-69
2022/09/22 12:36:30;;;;;;;2.70;1.70;;;;;;;15.27;65.51;100677.27;130259;1267;108644;-70
2022/09/22 12:39:41;;;;;;;2.80;1.20;;;;;;;15.25;62.78;100678.31;130264;1268;109490;-69
2022/09/22 12:42:52;;;;;;;2.10;1.60;;;;;;;15.24;64.12;100677.25;130300;1267;108961;-70
2022/09/22 12:45:59;;;;;;;2.30;1.60;;;;;;;15.24;63.30;100679.22;130159;1267;109515;-70
2022/09/22 12:49:13;;;;;;;2.00;1.40;;;;;;;15.08;61.49;100684.88;130231;1267;108745;-69
2022/09/22 12:53:01;;;;;;;1.60;1.20;;;;;;;15.00;61.47;100677.77;130215;1269;108626;-70
2022/09/22 12:56:40;;;;;;;1.40;1.20;;;;;;;14.81;61.92;100678.77;130318;1267;108852;-70
2022/09/22 13:00:14;;;;;;;1.30;1.10;;;;;;;14.74;61.72;100680.64;130238;1267;108653;-70
2022/09/22 13:03:48;;;;;;;1.90;1.50;;;;;;;14.74;62.03;100677.96;130258;1267;109329;-70
2022/09/22 13:06:56;;;;;;;2.30;1.80;;;;;;;14.70;62.15;100675.88;130205;1267;109602;-72
2022/09/22 13:10:31;;;;;;;2.80;1.90;;;;;;;14.60;62.85;100682.73;130256;1267;108926;-69
2022/09/22 13:13:43;;;;;;;1.30;1.10;;;;;;;14.43;62.60;100678.25;130206;1267;107644;-70
2022/09/22 13:16:48;;;;;;;1.50;1.00;;;;;;;14.27;62.65;100677.95;130123;1269;108530;-70
2022/09/22 13:19:57;;;;;;;3.50;1.60;;;;;;;14.12;63.02;100678.96;130225;1268;108754;-71
2022/09/22 13:23:10;;;;;;;1.70;1.50;;;;;;;13.94;62.52;100678.57;130270;1267;108643;-69
2022/09/22 13:26:18;;;;;;;1.60;1.40;;;;;;;13.84;63.38;100679.82;130291;1267;108620;-68
2022/09/22 13:29:24;;;;;;;1.90;1.40;;;;;;;13.71;61.77;100679.25;130144;1269;108602;-69
2022/09/22 13:32:29;;;;;;;1.40;1.30;;;;;;;13.60;62.32;100680.02;130290;1267;108752;-67
2022/09/22 13:35:37;;;;;;;1.70;1.30;;;;;;;13.55;63.00;100676.83;130297;1267;110369;-67
2022/09/22 13:38:45;;;;;;;3.30;2.50;;;;;;;13.54;63.55;100677.76;130240;1268;108546;-69
2022/09/22 13:41:55;;;;;;;2.90;2.20;;;;;;;13.55;63.84;100674.85;130225;1267;108561;-71
2022/09/22 13:45:05;;;;;;;2.50;1.90;;;;;;;13.55;63.59;100673.95;130263;1268;108866;-69
2022/09/22 13:48:15;;;;;;;2.60;1.80;;;;;;;13.57;63.59;100676.80;130267;1268;108789;-68
2022/09/22 13:51:21;;;;;;;2.40;1.70;;;;;;;13.55;63.19;100674.98;130316;1266;108575;-71
2022/09/22 13:54:30;;;;;;;2.20;1.60;;;;;;;13.61;63.98;100672.11;130312;1267;108770;-70
2022/09/22 13:57:37;;;;;;;2.50;1.70;;;;;;;13.59;62.99;100674.92;130298;1267;108680;-69
2022/09/22 14:00:52;;;;;;;2.10;1.80;;;;;;;13.55;63.31;100675.08;130279;1268;108391;-69
2022/09/22 14:03:58;;;;;;;2.10;1.70;;;;;;;13.50;63.09;100675.19;130230;1267;108796;-68
2022/09/22 14:07:08;;;;;;;2.20;1.70;;;;;;;13.47;62.71;100674.09;130207;1267;108849;-68
2022/09/22 14:10:18;;;;;;;2.10;1.80;;;;;;;13.42;62.62;100676.36;130332;1267;107437;-67
2022/09/22 14:13:41;;;;;;;2.30;1.90;;;;;;;13.39;63.06;100676.92;130289;1267;109117;-70
2022/09/22 14:16:53;;;;;;;2.30;2.10;;;;;;;13.35;63.29;100677.84;130308;1267;109221;-69
2022/09/22 14:20:01;;;;;;;3.40;2.10;;;;;;;13.35;63.70;100675.45;130330;1267;109067;-69
2022/09/22 14:23:16;;;;;;;4.10;2.30;;;;;;;13.39;64.21;100668.85;130233;1268;108718;-69
2022/09/22 14:26:32;;;;;;;2.90;2.00;;;;;;;13.40;63.93;100667.00;130143;1268;108436;-70
2022/09/22 14:29:39;;;;;;;2.80;2.10;;;;;;;13.40;64.61;100667.29;130217;1268;108946;-74
2022/09/22 14:32:50;;;;;;;4.20;2.40;;;;;;;13.41;64.77;100659.15;130380;1267;107171;-73
2022/09/22 14:36:04;;;;;;;3.70;2.20;;;;;;;13.43;64.72;100661.05;130276;1267;108679;-73
2022/09/22 14:39:19;;;;;;;2.90;2.20;;;;;;;13.45;65.14;100657.65;130266;1268;108841;-71
2022/09/22 14:42:27;;;;;;;3.40;1.70;;;;;;;13.46;65.23;100663.69;130286;1268;108623;-72
2022/09/22 14:45:33;;;;;;;3.70;2.40;;;;;;;13.44;65.26;100658.88;130513;1267;108677;-72